createdAt,value
2023-05-02T00:00:08.457Z,11.47
2023-05-02T00:00:32.081Z,11.44
2023-05-02T00:00:39.248Z,11.56
2023-05-02T00:00:49.132Z,11.36
2023-05-02T00:00:59.581Z,11.39
2023-05-02T00:01:07.311Z,11.56
2023-05-02T00:01:17.060Z,11.48
2023-05-02T00:01:36.415Z,11.45
2023-05-02T00:01:43.655Z,11.55
2023-05-02T00:01:50.841Z,11.28
2023-05-02T00:02:07.957Z,11.56
2023-05-02T00:02:15.279Z,11.60
2023-05-02T00:02:22.614Z,11.60
2023-05-02T00:02:37.198Z,11.46
2023-05-02T00:02:44.795Z,11.56
2023-05-02T00:02:52.497Z,11.64
2023-05-02T00:03:08.414Z,11.57
2023-05-02T00:03:17.568Z,11.55
2023-05-02T00:03:25.818Z,11.55
2023-05-02T00:03:43.938Z,11.57
2023-05-02T00:03:51.434Z,11.61
2023-05-02T00:03:58.868Z,11.46
2023-05-02T00:04:13.461Z,11.60
2023-05-02T00:04:23.406Z,11.54
2023-05-02T00:04:31.139Z,11.62
2023-05-02T00:04:45.838Z,11.62
2023-05-02T00:04:53.551Z,11.58
2023-05-02T00:05:05.492Z,11.59
2023-05-02T00:05:22.077Z,11.29
2023-05-02T00:05:29.450Z,11.37
2023-05-02T00:05:37.091Z,11.42
2023-05-02T00:05:51.955Z,11.60
2023-05-02T00:06:00.644Z,11.60
2023-05-02T00:06:08.090Z,11.54
2023-05-02T00:06:29.888Z,11.27
2023-05-02T00:06:37.383Z,11.46
2023-05-02T00:06:46.747Z,11.49
2023-05-02T00:06:54.357Z,11.59
2023-05-02T00:07:01.688Z,11.51
2023-05-02T00:07:08.884Z,11.59
2023-05-02T00:07:31.697Z,11.52
2023-05-02T00:07:38.964Z,11.47
2023-05-02T00:07:46.642Z,11.59
2023-05-02T00:07:56.896Z,11.58
2023-05-02T00:08:05.958Z,11.59
2023-05-02T00:08:13.327Z,11.49
2023-05-02T00:08:36.599Z,11.54
2023-05-02T00:08:44.411Z,11.54
2023-05-02T00:08:51.855Z,11.56
2023-05-02T00:08:59.367Z,11.57
2023-05-02T00:09:08.997Z,11.58
2023-05-02T00:09:17.702Z,11.55
2023-05-02T00:09:39.386Z,11.54
2023-05-02T00:09:47.049Z,11.50
2023-05-02T00:09:55.111Z,11.57
2023-05-02T00:10:03.316Z,11.21
2023-05-02T00:10:13.168Z,11.50
2023-05-02T00:10:22.488Z,11.52
2023-05-02T00:10:44.046Z,11.49
2023-05-02T00:10:52.300Z,11.39
2023-05-02T00:10:59.494Z,11.38
2023-05-02T00:11:06.693Z,11.47
2023-05-02T00:11:16.522Z,11.45
2023-05-02T00:11:24.640Z,11.24
2023-05-02T00:11:46.492Z,11.48
2023-05-02T00:11:56.038Z,11.37
2023-05-02T00:12:04.281Z,11.35
2023-05-02T00:12:11.448Z,11.45
2023-05-02T00:12:18.737Z,11.45
2023-05-02T00:12:26.245Z,11.48
2023-05-02T00:12:52.739Z,11.47
2023-05-02T00:12:59.886Z,11.50
2023-05-02T00:13:07.218Z,11.53
2023-05-02T00:13:14.504Z,11.54
2023-05-02T00:13:21.730Z,11.32
2023-05-02T00:13:28.888Z,11.51
2023-05-02T00:13:58.764Z,11.48
2023-05-02T00:14:08.758Z,11.33
2023-05-02T00:14:15.961Z,11.48
2023-05-02T00:14:23.201Z,11.15
2023-05-02T00:14:30.404Z,11.47
2023-05-02T00:14:37.599Z,11.42
2023-05-02T00:15:01.326Z,11.47
2023-05-02T00:15:10.137Z,11.46
2023-05-02T00:15:17.424Z,11.43
2023-05-02T00:15:24.679Z,11.36
2023-05-02T00:15:31.976Z,11.16
2023-05-02T00:15:39.168Z,11.48
2023-05-02T00:16:03.279Z,11.48
2023-05-02T00:16:12.611Z,11.47
2023-05-02T00:16:19.772Z,11.47
2023-05-02T00:16:26.979Z,11.45
2023-05-02T00:16:34.317Z,11.47
2023-05-02T00:16:41.785Z,11.33
2023-05-02T00:17:03.529Z,11.47
2023-05-02T00:17:20.409Z,11.43
2023-05-02T00:17:27.715Z,11.38
2023-05-02T00:17:35.018Z,11.42
2023-05-02T00:17:42.767Z,11.48
2023-05-02T00:17:50.013Z,11.47
2023-05-02T00:18:04.427Z,11.30
2023-05-02T00:18:28.366Z,11.39
2023-05-02T00:18:35.617Z,11.32
2023-05-02T00:18:45.433Z,11.37
2023-05-02T00:18:52.608Z,11.35
2023-05-02T00:18:59.821Z,11.21
2023-05-02T00:19:07.146Z,11.33
2023-05-02T00:19:28.808Z,11.30
2023-05-02T00:19:39.086Z,11.25
2023-05-02T00:19:46.366Z,11.35
2023-05-02T00:19:53.559Z,11.36
2023-05-02T00:20:01.151Z,11.39
2023-05-02T00:20:10.174Z,11.40
2023-05-02T00:20:34.160Z,11.36
2023-05-02T00:20:41.680Z,11.36
2023-05-02T00:20:48.968Z,11.30
2023-05-02T00:20:56.764Z,11.28
2023-05-02T00:21:04.407Z,11.27
2023-05-02T00:21:11.578Z,11.36
2023-05-02T00:21:36.479Z,11.36
2023-05-02T00:21:46.274Z,11.24
2023-05-02T00:21:53.588Z,11.29
2023-05-02T00:22:00.918Z,11.34
2023-05-02T00:22:08.138Z,11.32
2023-05-02T00:22:15.334Z,11.33
2023-05-02T00:22:38.407Z,11.35
2023-05-02T00:22:52.669Z,11.35
2023-05-02T00:23:02.566Z,11.35
2023-05-02T00:23:12.352Z,11.32
2023-05-02T00:23:20.665Z,11.30
2023-05-02T00:23:27.817Z,11.29
2023-05-02T00:23:42.339Z,11.31
2023-05-02T00:23:58.387Z,11.31
2023-05-02T00:24:06.492Z,11.30
2023-05-02T00:24:15.199Z,11.15
2023-05-02T00:24:24.959Z,11.16
2023-05-02T00:24:32.143Z,11.20
2023-05-02T00:24:45.234Z,11.28
2023-05-02T00:25:04.521Z,11.20
2023-05-02T00:25:16.371Z,11.31
2023-05-02T00:25:25.876Z,11.24
2023-05-02T00:25:33.059Z,11.22
2023-05-02T00:25:45.771Z,11.28
2023-05-02T00:25:55.602Z,11.32
2023-05-02T00:26:10.155Z,11.29
2023-05-02T00:26:21.497Z,11.30
2023-05-02T00:26:29.196Z,11.15
2023-05-02T00:26:37.725Z,11.33
2023-05-02T00:26:52.267Z,11.16
2023-05-02T00:26:59.395Z,11.16
2023-05-02T00:27:14.714Z,11.32
2023-05-02T00:27:21.934Z,11.33
2023-05-02T00:27:33.511Z,11.39
2023-05-02T00:27:40.631Z,11.39
2023-05-02T00:27:56.614Z,11.39
2023-05-02T00:28:03.893Z,11.28
2023-05-02T00:28:20.582Z,11.37
2023-05-02T00:28:31.982Z,11.35
2023-05-02T00:28:40.485Z,11.38
2023-05-02T00:28:47.653Z,11.33
2023-05-02T00:29:02.279Z,11.29
2023-05-02T00:29:12.133Z,11.32
2023-05-02T00:29:26.542Z,11.26
2023-05-02T00:29:33.716Z,11.32
2023-05-02T00:29:41.227Z,11.33
2023-05-02T00:29:48.670Z,11.29
2023-05-02T00:30:03.436Z,11.30
2023-05-02T00:30:12.798Z,11.19
2023-05-02T00:30:31.486Z,11.24
2023-05-02T00:30:43.274Z,11.32
2023-05-02T00:30:51.970Z,11.32
2023-05-02T00:30:59.852Z,11.34
2023-05-02T00:31:07.210Z,11.22
2023-05-02T00:31:14.385Z,11.34
2023-05-02T00:31:36.503Z,11.22
2023-05-02T00:31:43.788Z,11.31
2023-05-02T00:31:53.613Z,11.00
2023-05-02T00:32:00.864Z,11.20
2023-05-02T00:32:08.116Z,11.04
2023-05-02T00:32:15.301Z,11.08
2023-05-02T00:32:37.396Z,11.29
2023-05-02T00:32:44.816Z,11.32
2023-05-02T00:32:54.463Z,11.21
2023-05-02T00:33:03.053Z,11.28
2023-05-02T00:33:16.042Z,11.30
2023-05-02T00:33:23.317Z,11.30
2023-05-02T00:33:37.971Z,11.20
2023-05-02T00:33:45.268Z,11.16
2023-05-02T00:33:59.616Z,11.27
2023-05-02T00:34:07.800Z,11.26
2023-05-02T00:34:16.288Z,11.17
2023-05-02T00:34:23.660Z,11.23
2023-05-02T00:34:39.537Z,11.27
2023-05-02T00:34:47.924Z,11.28
2023-05-02T00:35:07.416Z,11.29
2023-05-02T00:35:14.809Z,11.25
2023-05-02T00:35:21.999Z,11.30
2023-05-02T00:35:29.462Z,11.31
2023-05-02T00:35:44.384Z,11.23
2023-05-02T00:35:53.951Z,11.23
2023-05-02T00:36:14.443Z,11.21
2023-05-02T00:36:24.654Z,11.23
2023-05-02T00:36:34.631Z,11.25
2023-05-02T00:36:41.969Z,11.14
2023-05-02T00:36:50.239Z,11.20
2023-05-02T00:36:58.118Z,11.26
2023-05-02T00:37:21.911Z,11.26
2023-05-02T00:37:29.225Z,11.29
2023-05-02T00:37:36.831Z,11.25
2023-05-02T00:37:44.841Z,11.28
2023-05-02T00:37:52.041Z,11.27
2023-05-02T00:38:05.955Z,11.28
2023-05-02T00:38:27.695Z,11.21
2023-05-02T00:38:34.897Z,11.02
2023-05-02T00:38:42.101Z,11.23
2023-05-02T00:38:49.420Z,11.26
2023-05-02T00:38:56.871Z,11.23
2023-05-02T00:39:13.505Z,11.26
2023-05-02T00:39:30.352Z,11.25
2023-05-02T00:39:37.772Z,11.14
2023-05-02T00:39:45.248Z,11.20
2023-05-02T00:39:53.871Z,11.06
2023-05-02T00:40:01.551Z,11.25
2023-05-02T00:40:19.905Z,11.24
2023-05-02T00:40:43.482Z,11.22
2023-05-02T00:40:54.127Z,11.27
2023-05-02T00:41:01.321Z,11.28
2023-05-02T00:41:08.551Z,11.22
2023-05-02T00:41:17.356Z,11.23
2023-05-02T00:41:24.589Z,11.21
2023-05-02T00:41:46.071Z,11.28
2023-05-02T00:41:57.526Z,11.30
2023-05-02T00:42:05.109Z,11.30
2023-05-02T00:42:12.307Z,11.27
2023-05-02T00:42:19.577Z,11.29
2023-05-02T00:42:31.623Z,11.20
2023-05-02T00:42:55.226Z,11.30
2023-05-02T00:43:02.453Z,11.28
2023-05-02T00:43:09.832Z,11.29
2023-05-02T00:43:17.626Z,11.30
2023-05-02T00:43:24.800Z,11.24
2023-05-02T00:43:32.087Z,11.15
2023-05-02T00:43:57.291Z,11.31
2023-05-02T00:44:04.650Z,11.23
2023-05-02T00:44:11.868Z,11.21
2023-05-02T00:44:20.144Z,11.25
2023-05-02T00:44:28.501Z,11.30
2023-05-02T00:44:35.679Z,11.25
2023-05-02T00:44:57.822Z,11.31
2023-05-02T00:45:08.510Z,11.28
2023-05-02T00:45:16.011Z,11.34
2023-05-02T00:45:23.702Z,11.33
2023-05-02T00:45:33.888Z,11.31
2023-05-02T00:45:46.543Z,11.11
2023-05-02T00:46:04.555Z,11.30
2023-05-02T00:46:13.154Z,11.28
2023-05-02T00:46:23.248Z,11.27
2023-05-02T00:46:30.826Z,11.27
2023-05-02T00:46:39.016Z,11.29
2023-05-02T00:46:53.884Z,11.26
2023-05-02T00:47:09.795Z,11.27
2023-05-02T00:47:18.476Z,11.25
2023-05-02T00:47:26.102Z,11.32
2023-05-02T00:47:34.150Z,11.28
2023-05-02T00:47:41.810Z,11.40
2023-05-02T00:47:57.524Z,11.36
2023-05-02T00:48:18.153Z,11.12
2023-05-02T00:48:26.107Z,11.39
2023-05-02T00:48:33.499Z,11.39
2023-05-02T00:48:40.776Z,11.38
2023-05-02T00:48:48.059Z,11.40
2023-05-02T00:49:05.094Z,11.25
2023-05-02T00:49:20.302Z,11.38
2023-05-02T00:49:31.267Z,11.20
2023-05-02T00:49:38.559Z,11.33
2023-05-02T00:49:48.597Z,11.35
2023-05-02T00:49:58.486Z,11.35
2023-05-02T00:50:07.430Z,11.35
2023-05-02T00:50:22.114Z,11.26
2023-05-02T00:50:33.886Z,11.24
2023-05-02T00:50:42.621Z,11.31
2023-05-02T00:50:53.948Z,11.23
2023-05-02T00:51:05.144Z,11.24
2023-05-02T00:51:13.569Z,11.30
2023-05-02T00:51:23.552Z,11.33
2023-05-02T00:51:38.417Z,11.26
2023-05-02T00:51:45.814Z,11.08
2023-05-02T00:51:54.372Z,11.28
2023-05-02T00:52:10.749Z,11.27
2023-05-02T00:52:21.134Z,11.32
2023-05-02T00:52:31.796Z,11.30
2023-05-02T00:52:39.918Z,11.28
2023-05-02T00:52:47.689Z,11.29
2023-05-02T00:52:57.086Z,11.29
2023-05-02T00:53:12.074Z,11.31
2023-05-02T00:53:31.195Z,11.31
2023-05-02T00:53:38.560Z,11.30
2023-05-02T00:53:46.238Z,11.21
2023-05-02T00:53:57.957Z,11.12
2023-05-02T00:54:06.455Z,11.00
2023-05-02T00:54:15.873Z,11.01
2023-05-02T00:54:32.245Z,11.33
2023-05-02T00:54:39.900Z,11.24
2023-05-02T00:54:48.198Z,11.29
2023-05-02T00:55:03.812Z,11.26
2023-05-02T00:55:11.133Z,11.31
2023-05-02T00:55:19.211Z,11.33
2023-05-02T00:55:36.729Z,11.29
2023-05-02T00:55:44.145Z,11.25
2023-05-02T00:55:51.439Z,11.25
2023-05-02T00:56:08.526Z,11.28
2023-05-02T00:56:15.715Z,11.25
2023-05-02T00:56:22.916Z,11.24
2023-05-02T00:56:37.484Z,11.14
2023-05-02T00:56:44.727Z,11.29
2023-05-02T00:56:52.004Z,11.17
2023-05-02T00:57:09.289Z,11.30
2023-05-02T00:57:16.750Z,11.24
2023-05-02T00:57:23.967Z,11.24
2023-05-02T00:57:39.796Z,11.28
2023-05-02T00:57:48.523Z,11.28
2023-05-02T00:57:55.918Z,11.14
2023-05-02T00:58:18.214Z,11.28
2023-05-02T00:58:27.473Z,11.27
2023-05-02T00:58:35.552Z,11.28
2023-05-02T00:58:44.005Z,11.17
2023-05-02T00:58:51.700Z,10.89
2023-05-02T00:58:59.738Z,11.25
2023-05-02T00:59:27.034Z,11.26
2023-05-02T00:59:35.682Z,11.26
2023-05-02T00:59:54.735Z,11.26
2023-05-02T01:00:02.535Z,11.23
2023-05-02T01:00:11.809Z,11.28
2023-05-02T01:00:19.234Z,11.25
2023-05-02T01:00:37.537Z,11.24
2023-05-02T01:00:59.646Z,11.27
2023-05-02T01:01:25.966Z,11.20
2023-05-02T01:01:40.972Z,11.24
2023-05-02T01:01:57.735Z,11.21
2023-05-02T01:02:18.971Z,11.25
2023-05-02T01:02:38.432Z,11.10
2023-05-02T01:02:56.340Z,11.21
2023-05-02T01:03:31.889Z,11.18
2023-05-02T01:03:46.786Z,11.21
2023-05-02T01:04:05.258Z,11.11
2023-05-02T01:04:31.400Z,11.23
2023-05-02T01:04:53.684Z,11.23
2023-05-02T01:05:10.775Z,11.25
2023-05-02T01:05:24.545Z,11.25
2023-05-02T01:05:44.040Z,11.19
2023-05-02T01:06:03.949Z,11.10
2023-05-02T01:06:43.988Z,11.01
2023-05-02T01:07:10.014Z,11.18
2023-05-02T01:07:31.058Z,11.13
2023-05-02T01:07:57.467Z,11.26
2023-05-02T01:08:15.365Z,11.25
2023-05-02T01:08:35.340Z,11.12
2023-05-02T01:08:51.096Z,11.14
2023-05-02T01:09:09.873Z,11.24
2023-05-02T01:09:33.414Z,11.20
2023-05-02T01:09:53.833Z,11.16
2023-05-02T01:10:13.173Z,11.09
2023-05-02T01:10:32.228Z,11.18
2023-05-02T01:10:53.208Z,11.21
2023-05-02T01:11:11.360Z,11.13
2023-05-02T01:11:31.538Z,11.07
2023-05-02T01:11:49.096Z,11.15
2023-05-02T01:12:05.085Z,11.25
2023-05-02T01:12:24.847Z,11.13
2023-05-02T01:12:43.331Z,11.25
2023-05-02T01:12:59.355Z,11.23
2023-05-02T01:13:12.261Z,11.24
2023-05-02T01:13:22.552Z,11.21
2023-05-02T01:13:34.100Z,11.23
2023-05-02T01:13:43.621Z,11.24
2023-05-02T01:13:53.487Z,11.21
2023-05-02T01:14:09.577Z,11.20
2023-05-02T01:14:18.852Z,11.13
2023-05-02T01:14:31.428Z,11.23
2023-05-02T01:14:44.708Z,11.10
2023-05-02T01:14:54.697Z,11.15
2023-05-02T01:15:06.122Z,11.02
2023-05-02T01:15:17.798Z,11.07
2023-05-02T01:15:25.609Z,11.23
2023-05-02T01:15:33.872Z,11.20
2023-05-02T01:15:52.438Z,11.11
2023-05-02T01:16:04.754Z,11.22
2023-05-02T01:16:14.655Z,11.22
2023-05-02T01:16:27.884Z,11.11
2023-05-02T01:16:42.443Z,11.16
2023-05-02T01:16:54.206Z,11.27
2023-05-02T01:17:08.807Z,11.23
2023-05-02T01:17:17.565Z,11.24
2023-05-02T01:17:29.227Z,11.23
2023-05-02T01:17:40.947Z,11.16
2023-05-02T01:17:52.978Z,11.07
2023-05-02T01:18:03.061Z,11.13
2023-05-02T01:18:13.226Z,11.24
2023-05-02T01:18:24.191Z,11.18
2023-05-02T01:18:35.980Z,11.14
2023-05-02T01:18:45.811Z,11.23
2023-05-02T01:18:54.351Z,11.14
2023-05-02T01:19:08.210Z,11.24
2023-05-02T01:19:28.472Z,11.19
2023-05-02T01:19:37.357Z,11.10
2023-05-02T01:19:51.456Z,11.20
2023-05-02T01:20:05.589Z,11.28
2023-05-02T01:20:24.833Z,11.26
2023-05-02T01:20:36.975Z,11.25
2023-05-02T01:20:48.484Z,11.25
2023-05-02T01:21:01.048Z,11.26
2023-05-02T01:21:10.486Z,11.25
2023-05-02T01:21:18.035Z,11.20
2023-05-02T01:21:29.889Z,11.26
2023-05-02T01:21:38.101Z,11.19
2023-05-02T01:21:54.399Z,11.25
2023-05-02T01:22:14.688Z,11.20
2023-05-02T01:22:24.935Z,11.20
2023-05-02T01:22:34.093Z,11.28
2023-05-02T01:22:42.016Z,11.27
2023-05-02T01:22:51.921Z,11.08
2023-05-02T01:23:07.684Z,11.21
2023-05-02T01:23:25.156Z,11.25
2023-05-02T01:23:43.927Z,11.19
2023-05-02T01:24:01.389Z,11.21
2023-05-02T01:24:17.058Z,11.25
2023-05-02T01:24:30.963Z,11.25
2023-05-02T01:24:49.263Z,11.22
2023-05-02T01:25:04.751Z,11.25
2023-05-02T01:25:30.063Z,11.27
2023-05-02T01:25:48.798Z,11.18
2023-05-02T01:26:06.282Z,11.07
2023-05-02T01:26:21.665Z,11.25
2023-05-02T01:26:36.805Z,11.25
2023-05-02T01:26:55.771Z,11.17
2023-05-02T01:27:16.682Z,11.13
2023-05-02T01:27:34.753Z,11.16
2023-05-02T01:27:50.509Z,11.17
2023-05-02T01:28:09.929Z,11.18
2023-05-02T01:28:32.241Z,11.23
2023-05-02T01:28:56.254Z,11.19
2023-05-02T01:29:05.778Z,11.23
2023-05-02T01:29:16.226Z,11.23
2023-05-02T01:29:28.344Z,11.23
2023-05-02T01:29:37.735Z,11.21
2023-05-02T01:29:46.758Z,11.18
2023-05-02T01:29:59.796Z,11.23
2023-05-02T01:30:10.254Z,11.17
2023-05-02T01:30:20.892Z,11.13
2023-05-02T01:30:30.715Z,11.08
2023-05-02T01:30:44.094Z,11.22
2023-05-02T01:30:56.745Z,11.01
2023-05-02T01:31:07.251Z,11.17
2023-05-02T01:31:16.677Z,11.21
2023-05-02T01:31:27.364Z,11.22
2023-05-02T01:31:43.835Z,11.04
2023-05-02T01:31:51.802Z,11.15
2023-05-02T01:32:07.272Z,11.21
2023-05-02T01:32:16.989Z,10.89
2023-05-02T01:32:25.239Z,11.24
2023-05-02T01:32:35.437Z,10.98
2023-05-02T01:32:46.616Z,11.24
2023-05-02T01:32:55.679Z,11.15
2023-05-02T01:33:18.415Z,11.12
2023-05-02T01:33:29.052Z,11.19
2023-05-02T01:33:38.523Z,11.25
2023-05-02T01:33:48.285Z,11.18
2023-05-02T01:34:00.586Z,11.20
2023-05-02T01:34:10.546Z,11.07
2023-05-02T01:34:21.836Z,11.00
2023-05-02T01:34:29.944Z,11.25
2023-05-02T01:34:43.608Z,11.25
2023-05-02T01:34:53.393Z,11.25
2023-05-02T01:35:04.486Z,11.16
2023-05-02T01:35:14.745Z,11.20
2023-05-02T01:35:23.311Z,11.22
2023-05-02T01:35:33.264Z,11.14
2023-05-02T01:35:45.366Z,11.24
2023-05-02T01:35:54.115Z,11.22
2023-05-02T01:36:04.143Z,11.20
2023-05-02T01:36:24.508Z,11.26
2023-05-02T01:36:34.751Z,11.00
2023-05-02T01:36:46.949Z,11.22
2023-05-02T01:36:57.922Z,11.18
2023-05-02T01:37:10.586Z,11.23
2023-05-02T01:37:20.646Z,11.27
2023-05-02T01:37:34.861Z,11.13
2023-05-02T01:37:48.632Z,11.27
2023-05-02T01:37:58.361Z,11.05
2023-05-02T01:38:07.616Z,11.17
2023-05-02T01:38:15.976Z,11.26
2023-05-02T01:38:25.483Z,11.14
2023-05-02T01:38:35.395Z,11.22
2023-05-02T01:38:52.652Z,11.29
2023-05-02T01:39:04.464Z,11.03
2023-05-02T01:39:16.200Z,11.21
2023-05-02T01:39:25.635Z,11.29
2023-05-02T01:39:33.662Z,11.25
2023-05-02T01:39:43.105Z,11.23
2023-05-02T01:39:58.559Z,11.26
2023-05-02T01:40:09.653Z,11.25
2023-05-02T01:40:22.868Z,11.28
2023-05-02T01:40:33.773Z,11.26
2023-05-02T01:40:46.072Z,11.22
2023-05-02T01:40:56.951Z,11.19
2023-05-02T01:41:07.528Z,11.27
2023-05-02T01:41:15.684Z,11.21
2023-05-02T01:41:26.178Z,11.14
2023-05-02T01:41:35.712Z,11.28
2023-05-02T01:41:59.176Z,10.98
2023-05-02T01:42:06.656Z,11.12
2023-05-02T01:42:15.299Z,11.27
2023-05-02T01:42:24.011Z,11.28
2023-05-02T01:42:34.112Z,11.07
2023-05-02T01:42:43.791Z,11.05
2023-05-02T01:43:03.846Z,11.29
2023-05-02T01:43:15.989Z,11.24
2023-05-02T01:43:27.982Z,11.15
2023-05-02T01:43:38.401Z,11.15
2023-05-02T01:43:47.547Z,11.25
2023-05-02T01:43:59.496Z,11.29
2023-05-02T01:44:08.925Z,11.28
2023-05-02T01:44:17.628Z,11.30
2023-05-02T01:44:37.815Z,11.27
2023-05-02T01:44:47.301Z,11.16
2023-05-02T01:44:56.924Z,11.30
2023-05-02T01:45:07.781Z,11.16
2023-05-02T01:45:16.843Z,11.18
2023-05-02T01:45:25.065Z,11.16
2023-05-02T01:45:47.988Z,11.29
2023-05-02T01:45:57.931Z,11.13
2023-05-02T01:46:12.041Z,11.30
2023-05-02T01:46:20.951Z,11.24
2023-05-02T01:46:34.838Z,11.21
2023-05-02T01:46:44.157Z,11.28
2023-05-02T01:46:53.830Z,11.27
2023-05-02T01:47:02.654Z,11.14
2023-05-02T01:47:20.214Z,11.26
2023-05-02T01:47:31.076Z,11.19
2023-05-02T01:47:42.262Z,11.19
2023-05-02T01:47:52.959Z,11.20
2023-05-02T01:48:02.306Z,11.26
2023-05-02T01:48:12.378Z,11.19
2023-05-02T01:48:20.208Z,10.99
2023-05-02T01:48:36.962Z,11.08
2023-05-02T01:48:49.480Z,11.23
2023-05-02T01:49:00.727Z,11.19
2023-05-02T01:49:12.420Z,11.22
2023-05-02T01:49:21.265Z,11.25
2023-05-02T01:49:32.025Z,11.20
2023-05-02T01:49:42.233Z,11.04
2023-05-02T01:49:50.284Z,10.98
2023-05-02T01:50:09.679Z,11.05
2023-05-02T01:50:21.938Z,11.04
2023-05-02T01:50:31.849Z,11.13
2023-05-02T01:50:43.428Z,11.19
2023-05-02T01:50:54.742Z,10.93
2023-05-02T01:51:03.769Z,11.23
2023-05-02T01:51:12.557Z,11.10
2023-05-02T01:51:33.312Z,11.17
2023-05-02T01:51:44.740Z,11.20
2023-05-02T01:51:53.552Z,10.82
2023-05-02T01:52:05.269Z,11.24
2023-05-02T01:52:16.950Z,11.24
2023-05-02T01:52:26.032Z,11.23
2023-05-02T01:52:33.993Z,11.16
2023-05-02T01:52:52.008Z,11.17
2023-05-02T01:53:03.711Z,11.09
2023-05-02T01:53:15.569Z,10.90
2023-05-02T01:53:24.177Z,11.18
2023-05-02T01:53:36.085Z,11.19
2023-05-02T01:53:47.429Z,11.06
2023-05-02T01:53:57.099Z,11.04
2023-05-02T01:54:07.560Z,11.17
2023-05-02T01:54:17.546Z,11.11
2023-05-02T01:54:27.018Z,11.15
2023-05-02T01:54:39.084Z,11.15
2023-05-02T01:54:59.273Z,11.14
2023-05-02T01:55:15.188Z,11.15
2023-05-02T01:55:24.484Z,10.83
2023-05-02T01:55:33.833Z,11.13
2023-05-02T01:55:45.521Z,11.15
2023-05-02T01:55:55.319Z,10.97
2023-05-02T01:56:03.931Z,11.13
2023-05-02T01:56:21.587Z,11.07
2023-05-02T01:56:37.756Z,10.93
2023-05-02T01:56:46.798Z,11.21
2023-05-02T01:56:55.958Z,11.11
2023-05-02T01:57:05.475Z,11.08
2023-05-02T01:57:15.547Z,11.09
2023-05-02T01:57:22.916Z,11.11
2023-05-02T01:57:40.277Z,10.84
2023-05-02T01:57:53.873Z,11.06
2023-05-02T01:58:02.488Z,11.18
2023-05-02T01:58:10.400Z,11.10
2023-05-02T01:58:19.612Z,11.19
2023-05-02T01:58:30.940Z,11.18
2023-05-02T01:58:43.010Z,11.09
2023-05-02T01:59:09.796Z,11.15
2023-05-02T01:59:20.523Z,11.05
2023-05-02T01:59:30.461Z,11.09
2023-05-02T01:59:39.045Z,11.09
2023-05-02T01:59:48.440Z,11.04
2023-05-02T01:59:57.774Z,11.08
2023-05-02T02:00:20.984Z,11.07
2023-05-02T02:00:30.285Z,11.11
2023-05-02T02:00:41.264Z,11.08
2023-05-02T02:00:49.282Z,10.98
2023-05-02T02:01:01.329Z,10.98
2023-05-02T02:01:11.362Z,10.98
2023-05-02T02:01:31.499Z,10.99
2023-05-02T02:01:41.721Z,11.04
2023-05-02T02:01:51.789Z,11.02
2023-05-02T02:02:00.170Z,10.98
2023-05-02T02:02:09.368Z,10.89
2023-05-02T02:02:18.088Z,11.01
2023-05-02T02:02:38.279Z,10.94
2023-05-02T02:02:48.986Z,10.92
2023-05-02T02:02:57.881Z,10.90
2023-05-02T02:03:07.146Z,10.85
2023-05-02T02:03:16.760Z,10.55
2023-05-02T02:03:24.896Z,10.92
2023-05-02T02:03:43.875Z,10.96
2023-05-02T02:04:04.231Z,10.97
2023-05-02T02:04:15.256Z,10.92
2023-05-02T02:04:25.686Z,10.95
2023-05-02T02:04:36.401Z,10.85
2023-05-02T02:04:46.197Z,10.98
2023-05-02T02:04:55.113Z,10.93
2023-05-02T02:05:05.277Z,10.85
2023-05-02T02:05:26.850Z,10.97
2023-05-02T02:05:35.342Z,10.90
2023-05-02T02:05:45.949Z,10.68
2023-05-02T02:05:55.646Z,10.80
2023-05-02T02:06:04.265Z,10.96
2023-05-02T02:06:15.889Z,10.92
2023-05-02T02:06:31.640Z,10.93
2023-05-02T02:06:45.032Z,10.94
2023-05-02T02:06:58.285Z,10.83
2023-05-02T02:07:12.814Z,10.93
2023-05-02T02:07:20.154Z,10.95
2023-05-02T02:07:27.492Z,10.92
2023-05-02T02:07:35.031Z,10.89
2023-05-02T02:07:51.186Z,10.92
2023-05-02T02:07:59.210Z,10.92
2023-05-02T02:08:13.875Z,10.83
2023-05-02T02:08:21.549Z,10.89
2023-05-02T02:08:28.810Z,10.88
2023-05-02T02:08:36.476Z,10.71
2023-05-02T02:08:54.092Z,10.92
2023-05-02T02:09:01.914Z,10.81
2023-05-02T02:09:19.300Z,10.87
2023-05-02T02:09:26.766Z,10.71
2023-05-02T02:09:34.842Z,10.86
2023-05-02T02:09:43.206Z,10.88
2023-05-02T02:10:01.340Z,10.86
2023-05-02T02:10:09.723Z,10.91
2023-05-02T02:10:30.969Z,10.93
2023-05-02T02:10:41.836Z,10.84
2023-05-02T02:10:54.425Z,10.94
2023-05-02T02:11:08.293Z,10.89
2023-05-02T02:11:22.369Z,10.91
2023-05-02T02:11:36.063Z,10.82
2023-05-02T02:11:52.510Z,10.98
2023-05-02T02:12:07.205Z,10.98
2023-05-02T02:12:22.247Z,10.98
2023-05-02T02:12:36.968Z,10.80
2023-05-02T02:12:54.545Z,10.92
2023-05-02T02:13:07.836Z,10.99
2023-05-02T02:13:19.298Z,10.97
2023-05-02T02:13:31.406Z,10.97
2023-05-02T02:13:44.394Z,10.92
2023-05-02T02:14:09.197Z,10.97
2023-05-02T02:14:20.474Z,10.88
2023-05-02T02:14:34.064Z,10.90
2023-05-02T02:14:51.898Z,10.95
2023-05-02T02:15:04.030Z,10.66
2023-05-02T02:15:20.026Z,10.91
2023-05-02T02:15:32.357Z,10.97
2023-05-02T02:15:46.076Z,10.97
2023-05-02T02:15:59.616Z,10.82
2023-05-02T02:16:15.521Z,10.81
2023-05-02T02:16:29.516Z,10.96
2023-05-02T02:16:39.931Z,10.91
2023-05-02T02:16:48.037Z,10.96
2023-05-02T02:17:05.419Z,10.95
2023-05-02T02:17:19.474Z,10.88
2023-05-02T02:17:30.613Z,10.89
2023-05-02T02:17:41.813Z,10.82
2023-05-02T02:17:56.035Z,10.76
2023-05-02T02:18:10.116Z,10.77
2023-05-02T02:18:22.518Z,10.95
2023-05-02T02:18:33.201Z,10.97
2023-05-02T02:18:40.362Z,10.74
2023-05-02T02:18:51.283Z,10.72
2023-05-02T02:19:05.561Z,10.85
2023-05-02T02:19:15.741Z,10.96
2023-05-02T02:19:24.184Z,10.86
2023-05-02T02:19:34.830Z,10.79
2023-05-02T02:19:43.191Z,10.96
2023-05-02T02:19:54.559Z,10.94
2023-05-02T02:20:08.896Z,10.81
2023-05-02T02:20:19.829Z,10.94
2023-05-02T02:20:32.428Z,10.94
2023-05-02T02:20:43.539Z,10.82
2023-05-02T02:20:51.916Z,10.89
2023-05-02T02:20:59.939Z,10.94
2023-05-02T02:21:10.009Z,10.93
2023-05-02T02:21:31.245Z,10.65
2023-05-02T02:21:41.312Z,10.44
2023-05-02T02:21:54.971Z,10.83
2023-05-02T02:22:05.453Z,10.82
2023-05-02T02:22:15.642Z,10.88
2023-05-02T02:22:27.037Z,10.94
2023-05-02T02:22:39.057Z,10.85
2023-05-02T02:22:48.009Z,10.87
2023-05-02T02:22:57.240Z,10.60
2023-05-02T02:23:08.598Z,10.69
2023-05-02T02:23:20.368Z,10.66
2023-05-02T02:23:30.480Z,10.89
2023-05-02T02:23:39.966Z,10.79
2023-05-02T02:23:49.278Z,10.91
2023-05-02T02:24:00.388Z,10.94
2023-05-02T02:24:21.430Z,10.67
2023-05-02T02:24:32.968Z,10.74
2023-05-02T02:24:41.359Z,10.64
2023-05-02T02:24:55.198Z,10.95
2023-05-02T02:25:07.006Z,10.96
2023-05-02T02:25:16.916Z,10.95
2023-05-02T02:25:25.971Z,10.98
2023-05-02T02:25:35.236Z,10.99
2023-05-02T02:25:45.605Z,10.99
2023-05-02T02:26:02.990Z,10.83
2023-05-02T02:26:10.821Z,10.91
2023-05-02T02:26:23.961Z,10.65
2023-05-02T02:26:31.341Z,10.85
2023-05-02T02:26:39.130Z,10.91
2023-05-02T02:26:46.980Z,10.99
2023-05-02T02:27:10.217Z,10.99
2023-05-02T02:27:17.784Z,10.87
2023-05-02T02:27:28.072Z,10.89
2023-05-02T02:27:36.629Z,10.94
2023-05-02T02:27:43.989Z,10.96
2023-05-02T02:27:51.827Z,10.87
2023-05-02T02:28:17.962Z,10.72
2023-05-02T02:28:25.709Z,10.92
2023-05-02T02:28:34.943Z,10.92
2023-05-02T02:28:43.054Z,10.96
2023-05-02T02:28:50.919Z,10.97
2023-05-02T02:29:03.974Z,10.80
2023-05-02T02:29:19.729Z,10.97
2023-05-02T02:29:27.353Z,10.97
2023-05-02T02:29:41.944Z,10.68
2023-05-02T02:29:51.525Z,10.70
2023-05-02T02:29:59.415Z,10.99
2023-05-02T02:30:13.967Z,10.94
2023-05-02T02:30:21.177Z,10.98
2023-05-02T02:30:28.900Z,10.97
2023-05-02T02:30:44.687Z,10.98
2023-05-02T02:30:52.042Z,10.66
2023-05-02T02:31:00.927Z,10.92
2023-05-02T02:31:15.323Z,11.00
2023-05-02T02:31:22.771Z,10.99
2023-05-02T02:31:33.808Z,11.00
2023-05-02T02:31:50.973Z,10.81
2023-05-02T02:31:58.118Z,10.66
2023-05-02T02:32:05.629Z,10.90
2023-05-02T02:32:21.317Z,10.94
2023-05-02T02:32:28.634Z,10.99
2023-05-02T02:32:36.285Z,10.89
2023-05-02T02:32:51.252Z,10.98
2023-05-02T02:32:58.559Z,11.00
2023-05-02T02:33:09.493Z,10.67